createdAt,value
2018-09-24T00:00:00.853Z,10.60
2018-09-24T00:02:29.672Z,10.60
2018-09-24T00:04:58.623Z,10.60
2018-09-24T00:07:27.486Z,10.60
2018-09-24T00:09:56.340Z,10.50
2018-09-24T00:12:25.287Z,10.50
2018-09-24T00:14:54.293Z,10.50
2018-09-24T00:17:23.245Z,10.40
2018-09-24T00:19:52.088Z,10.40
2018-09-24T00:22:20.941Z,10.40
2018-09-24T00:24:49.840Z,10.30
2018-09-24T00:27:18.729Z,10.40
2018-09-24T00:29:47.764Z,10.40
2018-09-24T00:32:16.735Z,10.40
2018-09-24T00:34:45.586Z,10.30
2018-09-24T00:37:14.431Z,10.40
2018-09-24T00:39:43.375Z,10.30
2018-09-24T00:42:12.266Z,10.30
2018-09-24T00:44:41.158Z,10.30
2018-09-24T00:47:10.098Z,10.20
2018-09-24T00:49:38.939Z,10.10
2018-09-24T00:52:07.810Z,10.20
2018-09-24T00:54:36.717Z,10.20
2018-09-24T00:57:05.591Z,10.20
2018-09-24T00:59:34.448Z,10.20
2018-09-24T01:02:03.388Z,10.20
2018-09-24T01:04:32.316Z,10.20
2018-09-24T01:07:01.300Z,10.20
2018-09-24T01:09:30.248Z,10.20
2018-09-24T01:11:59.104Z,10.10
2018-09-24T01:14:27.996Z,10.10
2018-09-24T01:16:56.889Z,10.00
2018-09-24T01:19:25.775Z,9.90
2018-09-24T01:21:54.678Z,9.70
2018-09-24T01:24:23.668Z,9.50
2018-09-24T01:26:52.620Z,9.40
2018-09-24T01:29:21.529Z,9.30
2018-09-24T01:31:50.534Z,9.20
2018-09-24T01:34:19.447Z,9.10
2018-09-24T01:36:48.333Z,9.00
2018-09-24T01:39:17.274Z,8.80
2018-09-24T01:41:46.165Z,8.70
2018-09-24T01:44:15.560Z,8.70
2018-09-24T01:46:44.575Z,8.60
2018-09-24T01:49:13.469Z,8.60
2018-09-24T01:51:42.436Z,8.50
2018-09-24T01:54:11.355Z,8.50
2018-09-24T01:56:40.220Z,8.50
2018-09-24T01:59:09.168Z,8.50
2018-09-24T02:01:38.412Z,8.50
2018-09-24T02:04:07.400Z,8.40
2018-09-24T02:06:36.260Z,8.40
2018-09-24T02:09:06.074Z,8.30
2018-09-24T02:11:35.033Z,8.30
2018-09-24T02:14:03.950Z,8.30
2018-09-24T02:16:32.916Z,8.20
2018-09-24T02:19:01.833Z,8.20
2018-09-24T02:21:30.686Z,8.20
2018-09-24T02:24:02.935Z,8.20
2018-09-24T02:26:31.992Z,8.20
2018-09-24T02:29:00.999Z,8.20
2018-09-24T02:31:31.421Z,8.20
2018-09-24T02:34:00.369Z,8.10
2018-09-24T02:36:29.306Z,8.10
2018-09-24T02:38:58.336Z,8.00
2018-09-24T02:41:27.309Z,8.00
2018-09-24T02:43:56.304Z,7.90
2018-09-24T02:46:25.261Z,7.90
2018-09-24T02:48:54.391Z,7.80
2018-09-24T02:51:23.348Z,7.80
2018-09-24T02:53:52.339Z,7.70
2018-09-24T02:56:21.329Z,7.70
2018-09-24T02:58:50.209Z,7.60
2018-09-24T03:01:19.383Z,7.70
2018-09-24T03:03:48.202Z,7.70
2018-09-24T03:06:17.113Z,7.60
2018-09-24T03:08:46.029Z,7.60
2018-09-24T03:11:14.982Z,7.60
2018-09-24T03:13:43.856Z,7.60
2018-09-24T03:16:12.761Z,7.70
2018-09-24T03:18:41.754Z,7.70
2018-09-24T03:21:10.641Z,7.70
2018-09-24T03:23:39.555Z,7.70
2018-09-24T03:26:08.442Z,7.70
2018-09-24T03:28:37.357Z,7.70
2018-09-24T03:31:06.241Z,7.80
2018-09-24T03:33:35.147Z,7.80
2018-09-24T03:36:04.029Z,7.80
2018-09-24T03:38:32.973Z,7.80
2018-09-24T03:41:01.876Z,7.80
2018-09-24T03:43:30.721Z,7.80
2018-09-24T03:45:59.604Z,7.80
2018-09-24T03:48:28.557Z,7.80
2018-09-24T03:50:57.479Z,7.80
2018-09-24T03:53:26.389Z,7.80
2018-09-24T03:55:55.277Z,7.80
2018-09-24T03:58:24.221Z,7.90
2018-09-24T04:00:53.217Z,7.90
2018-09-24T04:03:22.097Z,7.90
2018-09-24T04:05:56.161Z,7.90
2018-09-24T04:08:30.214Z,7.90
2018-09-24T04:11:05.247Z,7.90
2018-09-24T04:13:39.311Z,8.00
2018-09-24T04:16:14.168Z,8.00
2018-09-24T04:18:48.302Z,8.00
2018-09-24T04:21:22.450Z,8.00
2018-09-24T04:23:56.492Z,8.00
2018-09-24T04:26:30.680Z,8.00
2018-09-24T04:29:04.803Z,8.00
2018-09-24T04:31:38.935Z,8.10
2018-09-24T04:34:12.992Z,8.10
2018-09-24T04:36:47.096Z,8.10
2018-09-24T04:39:21.111Z,8.20
2018-09-24T04:41:55.195Z,8.20
2018-09-24T04:44:29.279Z,8.20
2018-09-24T04:47:03.270Z,8.20
2018-09-24T04:49:37.350Z,8.20
2018-09-24T04:52:11.436Z,8.30
2018-09-24T04:54:45.429Z,8.20
2018-09-24T04:57:19.458Z,8.30
2018-09-24T04:59:53.503Z,8.20
2018-09-24T05:02:27.745Z,8.20
2018-09-24T05:05:01.837Z,8.30
2018-09-24T05:07:41.121Z,8.30
2018-09-24T05:10:15.348Z,8.30
2018-09-24T05:12:49.344Z,8.30
2018-09-24T05:15:23.379Z,8.40
2018-09-24T05:17:57.462Z,8.50
2018-09-24T05:20:31.519Z,8.50
2018-09-24T05:23:05.512Z,8.50
2018-09-24T05:25:39.623Z,8.60
2018-09-24T05:28:13.812Z,8.70
2018-09-24T05:30:47.920Z,8.70
2018-09-24T05:33:23.292Z,8.70
2018-09-24T05:35:57.427Z,8.80
2018-09-24T05:38:31.519Z,8.80
2018-09-24T05:41:06.594Z,8.90
2018-09-24T05:43:40.725Z,8.90
2018-09-24T05:46:14.785Z,9.00
2018-09-24T05:48:48.807Z,9.10
2018-09-24T05:51:23.884Z,9.10
2018-09-24T05:53:57.929Z,9.10
2018-09-24T05:56:32.026Z,9.10
2018-09-24T05:59:06.256Z,9.10
2018-09-24T06:01:40.509Z,9.00
2018-09-24T06:04:14.568Z,9.00
2018-09-24T06:06:48.724Z,8.90
2018-09-24T06:09:23.504Z,8.90
2018-09-24T06:11:57.697Z,8.90
2018-09-24T06:14:31.966Z,8.90
2018-09-24T06:17:06.342Z,8.90
2018-09-24T06:19:40.380Z,8.90
2018-09-24T06:22:14.979Z,8.90
2018-09-24T06:24:49.198Z,9.00
2018-09-24T06:27:23.257Z,9.00
2018-09-24T06:29:57.360Z,9.00
2018-09-24T06:32:31.455Z,9.10
2018-09-24T06:35:05.519Z,9.00
2018-09-24T06:37:39.636Z,9.10
2018-09-24T06:40:13.658Z,9.10
2018-09-24T06:42:47.811Z,9.20
2018-09-24T06:45:21.854Z,9.30
2018-09-24T06:47:55.869Z,9.40
2018-09-24T06:50:29.997Z,9.50
2018-09-24T06:53:06.633Z,9.50
2018-09-24T06:55:43.113Z,9.60
2018-09-24T06:58:17.296Z,9.70
2018-09-24T07:00:51.412Z,9.70
2018-09-24T07:03:25.526Z,9.70
2018-09-24T07:05:59.537Z,9.60
2018-09-24T07:08:33.655Z,9.60
2018-09-24T07:11:07.796Z,9.50
2018-09-24T07:13:41.927Z,9.50
2018-09-24T07:16:16.175Z,9.50
2018-09-24T07:18:50.288Z,9.60
2018-09-24T07:21:24.410Z,9.70
2018-09-24T07:23:58.473Z,9.80
2018-09-24T07:26:32.537Z,9.90
2018-09-24T07:29:06.676Z,10.00
2018-09-24T07:31:40.657Z,10.00
2018-09-24T07:34:14.761Z,9.80
2018-09-24T07:36:48.900Z,9.80
2018-09-24T07:39:23.021Z,9.90
2018-09-24T07:41:57.038Z,10.10
2018-09-24T07:44:31.405Z,10.30
2018-09-24T07:47:05.657Z,10.60
2018-09-24T07:49:39.643Z,10.60
2018-09-24T07:52:13.724Z,10.50
2018-09-24T07:54:47.819Z,10.60
2018-09-24T07:57:21.946Z,10.80
2018-09-24T07:59:55.996Z,10.90
2018-09-24T08:02:30.030Z,11.10
2018-09-24T08:05:04.192Z,11.10
2018-09-24T08:07:39.111Z,11.00
2018-09-24T08:10:13.459Z,11.00
2018-09-24T08:12:47.695Z,10.90
2018-09-24T08:15:21.840Z,10.90
2018-09-24T08:17:55.871Z,11.00
2018-09-24T08:20:30.079Z,11.00
2018-09-24T08:23:04.068Z,11.00
2018-09-24T08:25:38.267Z,11.00
2018-09-24T08:28:12.500Z,11.00
2018-09-24T08:30:46.695Z,11.10
2018-09-24T08:33:21.938Z,11.20
2018-09-24T08:35:55.922Z,11.40
2018-09-24T08:38:30.092Z,11.60
2018-09-24T08:41:04.249Z,11.70
2018-09-24T08:43:38.241Z,11.80
2018-09-24T08:46:12.336Z,11.70
2018-09-24T08:48:46.448Z,11.60
2018-09-24T08:51:20.453Z,11.70
2018-09-24T08:53:54.588Z,11.90
2018-09-24T08:56:28.642Z,12.10
2018-09-24T08:59:02.705Z,12.40
2018-09-24T09:01:36.890Z,12.50
2018-09-24T09:04:11.049Z,12.50
2018-09-24T09:06:45.223Z,12.50
2018-09-24T09:09:19.260Z,12.50
2018-09-24T09:11:53.399Z,12.40
2018-09-24T09:14:27.453Z,12.40
2018-09-24T09:17:01.429Z,12.40
2018-09-24T09:19:35.413Z,12.50
2018-09-24T09:22:09.616Z,12.50
2018-09-24T09:24:43.689Z,12.50
2018-09-24T09:27:17.775Z,12.50
2018-09-24T09:29:51.919Z,12.50
2018-09-24T09:32:26.144Z,12.60
2018-09-24T09:35:00.143Z,12.80
2018-09-24T09:37:34.162Z,13.20
2018-09-24T09:40:08.095Z,13.50
2018-09-24T09:42:42.187Z,13.60
2018-09-24T09:45:16.199Z,13.60
2018-09-24T09:47:50.340Z,13.80
2018-09-24T09:50:24.430Z,13.90
2018-09-24T09:52:58.340Z,14.00
2018-09-24T09:55:32.388Z,14.10
2018-09-24T09:58:06.390Z,14.10
2018-09-24T10:00:40.428Z,14.20
2018-09-24T10:03:14.393Z,14.20
2018-09-24T10:05:48.399Z,13.80
2018-09-24T10:08:22.436Z,13.90
2018-09-24T10:10:56.580Z,14.00
2018-09-24T10:13:30.639Z,14.10
2018-09-24T10:16:04.784Z,14.20
2018-09-24T10:18:38.820Z,14.10
2018-09-24T10:21:13.006Z,14.00
2018-09-24T10:23:47.026Z,13.80
2018-09-24T10:26:21.214Z,13.80
2018-09-24T10:28:55.322Z,13.80
2018-09-24T10:31:29.519Z,13.80
2018-09-24T10:34:03.640Z,13.80
2018-09-24T10:36:37.743Z,13.70
2018-09-24T10:39:14.095Z,13.40
2018-09-24T10:41:48.634Z,13.20
2018-09-24T10:44:22.788Z,12.90
2018-09-24T10:46:56.905Z,12.60
2018-09-24T10:49:30.932Z,12.60
2018-09-24T10:52:04.990Z,12.80
2018-09-24T10:54:39.036Z,13.10
2018-09-24T10:57:12.976Z,13.20
2018-09-24T10:59:46.958Z,13.20
2018-09-24T11:02:20.943Z,13.10
2018-09-24T11:04:55.140Z,13.10
2018-09-24T11:07:29.167Z,13.10
2018-09-24T11:10:03.152Z,13.10
2018-09-24T11:12:37.129Z,13.10
2018-09-24T11:15:11.151Z,13.10
2018-09-24T11:17:45.395Z,13.10
2018-09-24T11:20:19.207Z,13.20
2018-09-24T11:22:53.315Z,13.20
2018-09-24T11:25:27.371Z,13.10
2018-09-24T11:28:01.883Z,13.00
2018-09-24T11:30:36.091Z,12.90
2018-09-24T11:33:10.166Z,12.80
2018-09-24T11:35:44.150Z,12.90
2018-09-24T11:38:18.296Z,13.40
2018-09-24T11:40:52.311Z,13.70
2018-09-24T11:43:26.332Z,13.80
2018-09-24T11:46:01.148Z,13.70
2018-09-24T11:48:35.361Z,13.60
2018-09-24T11:51:09.303Z,13.50
2018-09-24T11:53:43.275Z,13.50
2018-09-24T11:56:17.406Z,13.50
2018-09-24T11:58:51.541Z,13.30
2018-09-24T12:01:25.520Z,13.30
2018-09-24T12:03:59.523Z,13.50
2018-09-24T12:06:33.749Z,14.00
2018-09-24T12:09:07.840Z,14.30
2018-09-24T12:11:41.976Z,14.60
2018-09-24T12:14:16.094Z,14.60
2018-09-24T12:16:50.513Z,14.50
2018-09-24T12:19:24.553Z,14.40
2018-09-24T12:21:58.571Z,14.20
2018-09-24T12:24:32.581Z,13.90
2018-09-24T12:27:06.666Z,13.70
2018-09-24T12:29:41.425Z,13.80
2018-09-24T12:32:15.559Z,14.00
2018-09-24T12:34:49.707Z,14.00
2018-09-24T12:37:23.822Z,13.90
2018-09-24T12:39:57.982Z,13.80
2018-09-24T12:42:32.199Z,13.80
2018-09-24T12:45:06.321Z,14.10
2018-09-24T12:47:40.442Z,14.60
2018-09-24T12:50:14.471Z,14.90
2018-09-24T12:52:48.580Z,15.10
2018-09-24T12:55:23.872Z,15.00
2018-09-24T13:01:10.973Z,14.80
2018-09-24T15:36:53.758Z,10.30
2018-09-24T15:42:20.764Z,10.00
2018-09-24T15:45:00.565Z,10.00
2018-09-24T15:47:40.951Z,10.00
2018-09-24T15:50:20.633Z,9.90
2018-09-24T15:52:56.952Z,9.80
2018-09-24T15:55:36.774Z,9.70
2018-09-24T15:58:16.362Z,9.70
2018-09-24T16:00:52.362Z,9.70
2018-09-24T16:03:27.792Z,9.70
2018-09-24T16:06:12.326Z,9.70
2018-09-24T16:08:46.732Z,9.70
2018-09-24T16:11:26.779Z,9.80
2018-09-24T16:14:11.832Z,9.80
2018-09-24T16:16:51.712Z,9.80
2018-09-24T16:19:36.919Z,9.80
2018-09-24T16:25:01.912Z,9.90
2018-09-24T16:27:47.755Z,9.90
2018-09-24T16:30:27.634Z,9.90
2018-09-24T16:33:12.751Z,9.80
2018-09-24T16:38:38.101Z,9.70
2018-09-24T16:41:12.626Z,9.60
2018-09-24T16:43:57.753Z,9.50
2018-09-24T16:46:37.488Z,9.50
2018-09-24T16:49:22.764Z,9.40
2018-09-24T16:52:09.930Z,9.40
2018-09-24T16:54:50.772Z,9.40
2018-09-24T16:57:25.788Z,9.40
2018-09-24T17:00:05.633Z,9.40
2018-09-24T17:02:46.435Z,9.40
2018-09-24T17:05:21.568Z,9.30
2018-09-24T17:08:06.816Z,9.30
2018-09-24T17:10:46.741Z,9.30
2018-09-24T17:16:06.643Z,9.30
2018-09-24T17:18:46.453Z,9.40
2018-09-24T17:21:31.724Z,9.40
2018-09-24T17:24:18.672Z,9.30
2018-09-24T17:26:58.496Z,9.30
2018-09-24T17:29:45.779Z,9.30
2018-09-24T17:32:28.781Z,9.30
2018-09-24T17:35:08.588Z,9.40
2018-09-24T17:37:54.722Z,9.40
2018-09-24T17:40:34.485Z,9.30
2018-09-24T17:43:09.647Z,9.20
2018-09-24T17:45:55.944Z,9.10
2018-09-24T17:51:21.532Z,8.90
2018-09-24T17:59:39.551Z,8.70
2018-09-24T18:02:26.803Z,8.70
2018-09-24T18:07:48.818Z,8.60
2018-09-24T18:10:28.563Z,8.70
2018-09-24T18:13:13.717Z,8.70
2018-09-24T18:15:53.564Z,8.60
2018-09-24T18:18:33.543Z,8.60
2018-09-24T18:21:18.907Z,8.50
2018-09-24T18:24:00.712Z,8.50
2018-09-24T18:26:40.624Z,8.40
2018-09-24T18:29:25.756Z,8.40
2018-09-24T18:32:05.345Z,8.30
2018-09-24T18:34:49.766Z,8.30
2018-09-24T18:37:24.602Z,8.30
2018-09-24T18:40:09.646Z,8.20
2018-09-24T18:42:43.893Z,8.10
2018-09-24T18:45:18.090Z,8.10
2018-09-24T18:47:52.325Z,8.10
2018-09-24T18:50:26.464Z,8.00
2018-09-24T18:53:00.628Z,7.90
2018-09-24T18:55:34.764Z,7.80
2018-09-24T18:58:08.827Z,7.60
2018-09-24T19:00:42.968Z,7.50
2018-09-24T19:03:16.987Z,7.50
2018-09-24T19:05:51.216Z,7.50
2018-09-24T19:08:25.329Z,7.50
2018-09-24T19:10:59.359Z,7.50
2018-09-24T19:13:34.460Z,7.50
2018-09-24T19:16:08.655Z,7.40
2018-09-24T19:18:42.681Z,7.40
2018-09-24T19:21:16.925Z,7.20
2018-09-24T19:23:50.951Z,7.10
2018-09-24T19:26:25.141Z,7.00
2018-09-24T19:28:59.721Z,6.90
2018-09-24T19:31:33.851Z,6.80
2018-09-24T19:34:07.894Z,6.70
2018-09-24T19:36:41.990Z,6.70
2018-09-24T19:39:16.102Z,6.60
2018-09-24T19:41:50.274Z,6.50
2018-09-24T19:44:24.590Z,6.50
2018-09-24T19:46:58.963Z,6.50
2018-09-24T19:49:33.134Z,6.40
2018-09-24T19:52:07.269Z,6.40
2018-09-24T19:54:41.303Z,6.40
2018-09-24T19:57:15.342Z,6.40
2018-09-24T19:59:49.533Z,6.30
2018-09-24T20:02:23.761Z,6.30
2018-09-24T20:04:58.024Z,6.30
2018-09-24T20:07:32.392Z,6.20
2018-09-24T20:10:06.789Z,6.20
2018-09-24T20:12:40.894Z,6.20
2018-09-24T20:15:15.256Z,6.20
2018-09-24T20:17:49.419Z,6.20
2018-09-24T20:20:23.483Z,6.10
2018-09-24T20:22:58.802Z,6.00
2018-09-24T20:25:33.163Z,6.00
2018-09-24T20:28:07.538Z,6.00
2018-09-24T20:30:42.384Z,6.00
2018-09-24T20:33:16.527Z,6.00
2018-09-24T20:35:50.681Z,6.00
2018-09-24T20:38:24.629Z,6.00
2018-09-24T20:40:58.830Z,6.10
2018-09-24T20:43:32.794Z,6.10
2018-09-24T20:46:06.955Z,6.10
2018-09-24T20:48:41.189Z,6.10
2018-09-24T20:51:15.419Z,6.10
2018-09-24T20:53:49.498Z,6.10
2018-09-24T20:56:24.307Z,6.20
2018-09-24T20:58:58.376Z,6.20
2018-09-24T21:01:32.611Z,6.20
2018-09-24T21:04:06.617Z,6.20
2018-09-24T21:06:40.681Z,6.20
2018-09-24T21:09:15.048Z,6.20
2018-09-24T21:11:49.627Z,6.30
2018-09-24T21:14:23.684Z,6.30
2018-09-24T21:16:57.683Z,6.30
2018-09-24T21:19:31.700Z,6.40
2018-09-24T21:22:05.991Z,6.40
2018-09-24T21:24:41.562Z,6.40
2018-09-24T21:27:15.631Z,6.30
2018-09-24T21:29:49.692Z,6.20
2018-09-24T21:32:23.849Z,6.20
2018-09-24T21:34:58.038Z,6.10
2018-09-24T21:37:32.004Z,6.10
2018-09-24T21:40:06.119Z,6.10
2018-09-24T21:42:40.066Z,6.10
2018-09-24T21:45:14.252Z,6.10
2018-09-24T21:47:48.498Z,6.20
2018-09-24T21:50:22.673Z,6.30
2018-09-24T21:52:56.660Z,6.40
2018-09-24T21:55:30.737Z,6.50
2018-09-24T21:58:04.930Z,6.50
2018-09-24T22:00:39.032Z,6.50
2018-09-24T22:03:13.086Z,6.60
2018-09-24T22:05:47.147Z,6.60
2018-09-24T22:08:22.411Z,6.50
2018-09-24T22:10:56.587Z,6.50
2018-09-24T22:13:30.736Z,6.50
2018-09-24T22:16:04.965Z,6.60
2018-09-24T22:18:39.073Z,6.60
2018-09-24T22:21:13.121Z,6.60
2018-09-24T22:23:47.245Z,6.80
2018-09-24T22:26:21.152Z,6.80
2018-09-24T22:28:55.221Z,6.90
2018-09-24T22:31:29.216Z,6.90
2018-09-24T22:34:03.298Z,6.80
2018-09-24T22:36:37.335Z,6.80
2018-09-24T22:39:13.674Z,6.80
2018-09-24T22:41:48.224Z,6.80
2018-09-24T22:44:22.166Z,6.90
2018-09-24T22:46:56.343Z,6.90
2018-09-24T22:49:30.430Z,7.00
2018-09-24T22:52:04.559Z,7.00
2018-09-24T22:54:38.587Z,7.00
2018-09-24T22:57:13.450Z,6.90
2018-09-24T22:59:47.497Z,6.90
2018-09-24T23:02:21.646Z,7.00
2018-09-24T23:04:55.668Z,7.00
2018-09-24T23:07:29.660Z,7.00
2018-09-24T23:10:03.693Z,7.00
2018-09-24T23:12:37.721Z,7.00
2018-09-24T23:15:11.961Z,7.00
2018-09-24T23:17:46.056Z,7.10
2018-09-24T23:20:19.996Z,7.10
2018-09-24T23:22:53.936Z,7.10
2018-09-24T23:25:28.085Z,7.10
2018-09-24T23:28:02.308Z,7.20
2018-09-24T23:30:36.293Z,7.20
2018-09-24T23:33:10.304Z,7.10
2018-09-24T23:35:44.502Z,7.20
2018-09-24T23:38:18.674Z,7.20
2018-09-24T23:40:52.799Z,7.20
2018-09-24T23:43:26.883Z,7.20
2018-09-24T23:46:01.004Z,7.20
2018-09-24T23:48:34.971Z,7.20
2018-09-24T23:51:09.143Z,7.20
2018-09-24T23:53:43.102Z,7.10
2018-09-24T23:56:17.227Z,7.10
2018-09-24T23:58:51.339Z,7.20
